sensor_id;sensor_type;location;lat;lon;timestamp;pressure;altitude;pressure_sealevel;temperature;humidity
69622;BME280;56841;55.964;37.674;2022-08-14T00:01:24;100009.78;;;18.90;88.00
69622;BME280;56841;55.964;37.674;2022-08-14T00:03:50;100001.41;;;18.80;88.47
69622;BME280;56841;55.964;37.674;2022-08-14T00:06:17;100001.22;;;18.75;88.81
69622;BME280;56841;55.964;37.674;2022-08-14T00:08:43;100003.66;;;18.69;89.36
69622;BME280;56841;55.964;37.674;2022-08-14T00:11:08;100007.78;;;18.65;89.19
69622;BME280;56841;55.964;37.674;2022-08-14T00:13:34;100001.25;;;18.55;89.93
69622;BME280;56841;55.964;37.674;2022-08-14T00:16:02;100003.75;;;18.50;90.38
69622;BME280;56841;55.964;37.674;2022-08-14T00:18:28;100003.53;;;18.44;90.58
69622;BME280;56841;55.964;37.674;2022-08-14T00:20:55;100001.88;;;18.50;90.22
69622;BME280;56841;55.964;37.674;2022-08-14T00:23:21;100004.16;;;18.53;90.37
69622;BME280;56841;55.964;37.674;2022-08-14T00:25:50;100007.00;;;18.52;90.32
69622;BME280;56841;55.964;37.674;2022-08-14T00:28:16;100002.50;;;18.45;90.31
69622;BME280;56841;55.964;37.674;2022-08-14T00:30:42;99997.38;;;18.44;90.76
69622;BME280;56841;55.964;37.674;2022-08-14T00:33:08;100007.84;;;18.45;91.07
69622;BME280;56841;55.964;37.674;2022-08-14T00:35:34;99994.69;;;18.44;91.01
69622;BME280;56841;55.964;37.674;2022-08-14T00:38:00;100002.72;;;18.44;90.90
69622;BME280;56841;55.964;37.674;2022-08-14T00:40:26;100004.56;;;18.43;91.20
69622;BME280;56841;55.964;37.674;2022-08-14T00:42:52;99996.75;;;18.42;91.42
69622;BME280;56841;55.964;37.674;2022-08-14T00:45:18;100000.47;;;18.41;91.47
69622;BME280;56841;55.964;37.674;2022-08-14T00:47:47;100005.81;;;18.41;91.47
69622;BME280;56841;55.964;37.674;2022-08-14T00:50:16;99998.44;;;18.36;92.10
69622;BME280;56841;55.964;37.674;2022-08-14T00:52:46;100005.81;;;18.34;92.78
69622;BME280;56841;55.964;37.674;2022-08-14T00:55:12;100000.50;;;18.28;93.46
69622;BME280;56841;55.964;37.674;2022-08-14T00:57:39;99998.84;;;18.27;94.60
69622;BME280;56841;55.964;37.674;2022-08-14T01:00:09;99997.81;;;18.28;93.59
69622;BME280;56841;55.964;37.674;2022-08-14T01:02:40;99998.03;;;18.19;94.03
69622;BME280;56841;55.964;37.674;2022-08-14T01:05:08;100004.81;;;18.22;94.77
69622;BME280;56841;55.964;37.674;2022-08-14T01:07:53;100001.72;;;18.18;94.90
69622;BME280;56841;55.964;37.674;2022-08-14T01:10:24;100000.72;;;18.06;94.97
69622;BME280;56841;55.964;37.674;2022-08-14T01:13:12;100007.09;;;18.05;95.28
69622;BME280;56841;55.964;37.674;2022-08-14T01:15:43;100009.78;;;18.05;95.24
69622;BME280;56841;55.964;37.674;2022-08-14T01:18:10;100004.41;;;18.12;94.58
69622;BME280;56841;55.964;37.674;2022-08-14T01:20:55;100003.00;;;18.03;93.75
69622;BME280;56841;55.964;37.674;2022-08-14T01:23:44;100012.47;;;17.98;92.93
69622;BME280;56841;55.964;37.674;2022-08-14T01:26:12;100017.38;;;17.88;94.51
69622;BME280;56841;55.964;37.674;2022-08-14T01:28:38;100020.66;;;17.84;94.70
69622;BME280;56841;55.964;37.674;2022-08-14T01:31:06;100030.53;;;17.76;95.89
69622;BME280;56841;55.964;37.674;2022-08-14T01:33:35;100027.81;;;17.70;95.68
69622;BME280;56841;55.964;37.674;2022-08-14T01:36:06;100021.44;;;17.64;94.92
69622;BME280;56841;55.964;37.674;2022-08-14T01:38:33;100030.66;;;17.55;94.95
69622;BME280;56841;55.964;37.674;2022-08-14T01:41:00;100023.91;;;17.59;94.78
69622;BME280;56841;55.964;37.674;2022-08-14T01:43:26;100020.59;;;17.57;95.09
69622;BME280;56841;55.964;37.674;2022-08-14T01:45:57;100031.28;;;17.57;95.13
69622;BME280;56841;55.964;37.674;2022-08-14T01:48:26;100032.94;;;17.51;95.52
69622;BME280;56841;55.964;37.674;2022-08-14T01:50:58;100020.19;;;17.53;95.75
69622;BME280;56841;55.964;37.674;2022-08-14T01:53:30;100028.41;;;17.52;95.98
69622;BME280;56841;55.964;37.674;2022-08-14T01:56:02;100028.16;;;17.47;96.76
69622;BME280;56841;55.964;37.674;2022-08-14T01:58:29;100037.47;;;17.58;95.65
69622;BME280;56841;55.964;37.674;2022-08-14T02:00:56;100029.06;;;17.61;95.43
69622;BME280;56841;55.964;37.674;2022-08-14T02:03:26;100031.09;;;17.65;94.73
69622;BME280;56841;55.964;37.674;2022-08-14T02:05:56;100033.34;;;17.62;94.38
69622;BME280;56841;55.964;37.674;2022-08-14T02:08:27;100033.78;;;17.72;94.30
69622;BME280;56841;55.964;37.674;2022-08-14T02:10:57;100036.44;;;17.72;93.33
69622;BME280;56841;55.964;37.674;2022-08-14T02:13:43;100037.25;;;17.59;94.63
69622;BME280;56841;55.964;37.674;2022-08-14T02:16:11;100040.53;;;17.55;94.66
69622;BME280;56841;55.964;37.674;2022-08-14T02:18:41;100041.34;;;17.48;95.08
69622;BME280;56841;55.964;37.674;2022-08-14T02:21:12;100040.91;;;17.45;95.72
69622;BME280;56841;55.964;37.674;2022-08-14T02:23:45;100039.47;;;17.42;95.95
69622;BME280;56841;55.964;37.674;2022-08-14T02:26:32;100042.16;;;17.49;95.22
69622;BME280;56841;55.964;37.674;2022-08-14T02:29:04;100043.38;;;17.53;95.37
69622;BME280;56841;55.964;37.674;2022-08-14T02:31:33;100047.91;;;17.52;95.63
69622;BME280;56841;55.964;37.674;2022-08-14T02:34:08;100045.47;;;17.51;95.64
69622;BME280;56841;55.964;37.674;2022-08-14T02:36:38;100048.31;;;17.56;94.96
69622;BME280;56841;55.964;37.674;2022-08-14T02:39:06;100043.63;;;17.58;94.49
69622;BME280;56841;55.964;37.674;2022-08-14T02:41:33;100053.88;;;17.55;94.84
69622;BME280;56841;55.964;37.674;2022-08-14T02:44:03;100050.38;;;17.47;95.47
69622;BME280;56841;55.964;37.674;2022-08-14T02:46:29;100054.44;;;17.43;95.62
69622;BME280;56841;55.964;37.674;2022-08-14T02:48:56;100052.00;;;17.48;95.22
69622;BME280;56841;55.964;37.674;2022-08-14T02:51:22;100059.81;;;17.50;95.28
69622;BME280;56841;55.964;37.674;2022-08-14T02:53:48;100056.94;;;17.45;95.68
69622;BME280;56841;55.964;37.674;2022-08-14T02:56:17;100058.16;;;17.49;95.56
69622;BME280;56841;55.964;37.674;2022-08-14T02:58:47;100057.53;;;17.47;95.68
69622;BME280;56841;55.964;37.674;2022-08-14T03:01:14;100058.41;;;17.54;95.33
69622;BME280;56841;55.964;37.674;2022-08-14T03:03:42;100063.56;;;17.69;94.18
69622;BME280;56841;55.964;37.674;2022-08-14T03:06:09;100057.84;;;17.79;93.44
69622;BME280;56841;55.964;37.674;2022-08-14T03:08:36;100066.28;;;17.89;92.68
69622;BME280;56841;55.964;37.674;2022-08-14T03:11:08;100058.28;;;17.89;92.77
69622;BME280;56841;55.964;37.674;2022-08-14T03:13:47;100061.78;;;17.96;92.35
69622;BME280;56841;55.964;37.674;2022-08-14T03:16:16;100060.75;;;18.04;92.30
69622;BME280;56841;55.964;37.674;2022-08-14T03:18:44;100062.38;;;18.11;91.74
69622;BME280;56841;55.964;37.674;2022-08-14T03:21:12;100064.03;;;18.06;91.53
69622;BME280;56841;55.964;37.674;2022-08-14T03:23:41;100062.59;;;18.16;91.25
69622;BME280;56841;55.964;37.674;2022-08-14T03:26:08;100060.09;;;18.28;90.62
69622;BME280;56841;55.964;37.674;2022-08-14T03:28:35;100057.25;;;18.36;90.05
69622;BME280;56841;55.964;37.674;2022-08-14T03:31:05;100054.34;;;18.44;89.18
69622;BME280;56841;55.964;37.674;2022-08-14T03:33:31;100072.00;;;18.52;88.94
69622;BME280;56841;55.964;37.674;2022-08-14T03:35:57;100060.09;;;18.55;88.99
69622;BME280;56841;55.964;37.674;2022-08-14T03:38:24;100058.03;;;18.63;88.65
69622;BME280;56841;55.964;37.674;2022-08-14T03:40:49;100060.47;;;18.78;88.12
69622;BME280;56841;55.964;37.674;2022-08-14T03:43:16;100053.88;;;18.87;87.58
69622;BME280;56841;55.964;37.674;2022-08-14T03:45:41;100060.19;;;19.00;87.12
69622;BME280;56841;55.964;37.674;2022-08-14T03:48:12;100060.38;;;19.11;87.26
69622;BME280;56841;55.964;37.674;2022-08-14T03:50:41;100054.91;;;19.25;86.98
69622;BME280;56841;55.964;37.674;2022-08-14T03:53:09;100056.13;;;19.35;86.26
69622;BME280;56841;55.964;37.674;2022-08-14T03:55:36;100062.22;;;19.49;85.49
69622;BME280;56841;55.964;37.674;2022-08-14T03:58:05;100056.19;;;19.60;85.78
69622;BME280;56841;55.964;37.674;2022-08-14T04:00:31;100053.06;;;19.70;84.05
69622;BME280;56841;55.964;37.674;2022-08-14T04:02:57;100051.34;;;19.76;83.23
69622;BME280;56841;55.964;37.674;2022-08-14T04:05:23;100054.38;;;19.86;83.15
69622;BME280;56841;55.964;37.674;2022-08-14T04:07:49;100051.66;;;19.93;82.13
69622;BME280;56841;55.964;37.674;2022-08-14T04:10:16;100047.66;;;20.02;82.63
69622;BME280;56841;55.964;37.674;2022-08-14T04:12:42;100054.03;;;20.07;81.81
69622;BME280;56841;55.964;37.674;2022-08-14T04:15:08;100052.91;;;20.15;81.62
69622;BME280;56841;55.964;37.674;2022-08-14T04:17:34;100048.31;;;20.22;80.44
69622;BME280;56841;55.964;37.674;2022-08-14T04:20:00;100050.69;;;20.30;80.67
69622;BME280;56841;55.964;37.674;2022-08-14T04:22:30;100045.50;;;20.35;80.55
69622;BME280;56841;55.964;37.674;2022-08-14T04:24:57;100055.91;;;20.50;80.15
69622;BME280;56841;55.964;37.674;2022-08-14T04:27:24;100057.75;;;20.50;78.73
69622;BME280;56841;55.964;37.674;2022-08-14T04:29:49;100053.97;;;20.57;78.36
69622;BME280;56841;55.964;37.674;2022-08-14T04:32:15;100060.03;;;20.71;77.50
69622;BME280;56841;55.964;37.674;2022-08-14T04:34:43;100049.00;;;20.79;77.67
69622;BME280;56841;55.964;37.674;2022-08-14T04:37:09;100059.59;;;20.93;76.12
69622;BME280;56841;55.964;37.674;2022-08-14T04:39:54;100056.97;;;21.04;76.04
69622;BME280;56841;55.964;37.674;2022-08-14T04:42:39;100056.94;;;21.23;74.69
69622;BME280;56841;55.964;37.674;2022-08-14T04:45:25;100059.06;;;21.33;74.94
69622;BME280;56841;55.964;37.674;2022-08-14T04:48:04;100057.88;;;21.47;75.44
69622;BME280;56841;55.964;37.674;2022-08-14T04:50:48;100059.56;;;21.60;74.42
69622;BME280;56841;55.964;37.674;2022-08-14T04:53:19;100053.63;;;21.69;74.14
69622;BME280;56841;55.964;37.674;2022-08-14T04:55:46;100056.56;;;21.80;74.02
69622;BME280;56841;55.964;37.674;2022-08-14T04:58:17;100059.97;;;21.87;72.37
69622;BME280;56841;55.964;37.674;2022-08-14T05:00:45;100064.44;;;21.93;72.64
69622;BME280;56841;55.964;37.674;2022-08-14T05:03:11;100054.63;;;21.98;72.92
69622;BME280;56841;55.964;37.674;2022-08-14T05:05:37;100053.00;;;22.09;72.55
69622;BME280;56841;55.964;37.674;2022-08-14T05:08:05;100048.72;;;22.20;72.50
69622;BME280;56841;55.964;37.674;2022-08-14T05:10:35;100054.81;;;22.27;71.50
69622;BME280;56841;55.964;37.674;2022-08-14T05:13:00;100053.97;;;22.38;71.51
69622;BME280;56841;55.964;37.674;2022-08-14T05:15:26;100042.41;;;22.50;72.02
69622;BME280;56841;55.964;37.674;2022-08-14T05:17:55;100053.03;;;22.56;70.31
69622;BME280;56841;55.964;37.674;2022-08-14T05:20:20;100047.75;;;22.61;69.46
69622;BME280;56841;55.964;37.674;2022-08-14T05:22:46;100047.97;;;22.71;69.88
69622;BME280;56841;55.964;37.674;2022-08-14T05:25:12;100049.25;;;22.81;68.84
69622;BME280;56841;55.964;37.674;2022-08-14T05:27:38;100044.56;;;22.88;67.85
69622;BME280;56841;55.964;37.674;2022-08-14T05:30:05;100040.78;;;23.01;68.69
69622;BME280;56841;55.964;37.674;2022-08-14T05:32:31;100041.84;;;23.11;68.66
69622;BME280;56841;55.964;37.674;2022-08-14T05:34:58;100041.69;;;23.18;65.54
69622;BME280;56841;55.964;37.674;2022-08-14T05:37:25;100036.72;;;23.27;65.38
69622;BME280;56841;55.964;37.674;2022-08-14T05:39:51;100041.50;;;23.36;65.83
69622;BME280;56841;55.964;37.674;2022-08-14T05:42:17;100039.81;;;23.47;64.00
69622;BME280;56841;55.964;37.674;2022-08-14T05:44:43;100042.66;;;23.57;64.99
69622;BME280;56841;55.964;37.674;2022-08-14T05:47:09;100038.31;;;23.68;65.72
69622;BME280;56841;55.964;37.674;2022-08-14T05:49:35;100041.16;;;23.78;65.45
69622;BME280;56841;55.964;37.674;2022-08-14T05:52:01;100037.84;;;23.88;63.83
69622;BME280;56841;55.964;37.674;2022-08-14T05:54:27;100039.56;;;23.94;61.46
69622;BME280;56841;55.964;37.674;2022-08-14T05:56:53;100034.81;;;24.01;60.57
69622;BME280;56841;55.964;37.674;2022-08-14T05:59:19;100041.13;;;24.07;62.60
69622;BME280;56841;55.964;37.674;2022-08-14T06:01:45;100038.66;;;24.05;62.94
69622;BME280;56841;55.964;37.674;2022-08-14T06:04:11;100036.59;;;24.12;62.58
69622;BME280;56841;55.964;37.674;2022-08-14T06:06:36;100034.38;;;24.26;62.32
69622;BME280;56841;55.964;37.674;2022-08-14T06:09:03;100028.56;;;24.34;60.84
69622;BME280;56841;55.964;37.674;2022-08-14T06:11:28;100038.22;;;24.30;60.32
69622;BME280;56841;55.964;37.674;2022-08-14T06:13:54;100023.59;;;24.43;60.08
69622;BME280;56841;55.964;37.674;2022-08-14T06:16:20;100027.50;;;24.52;59.72
69622;BME280;56841;55.964;37.674;2022-08-14T06:18:47;100023.53;;;24.60;59.37
69622;BME280;56841;55.964;37.674;2022-08-14T06:21:15;100024.75;;;24.69;59.66
69622;BME280;56841;55.964;37.674;2022-08-14T06:23:41;100028.00;;;24.71;57.76
69622;BME280;56841;55.964;37.674;2022-08-14T06:26:07;100027.81;;;24.78;58.14
69622;BME280;56841;55.964;37.674;2022-08-14T06:28:34;100024.38;;;24.82;57.61
69622;BME280;56841;55.964;37.674;2022-08-14T06:31:00;100027.50;;;24.96;57.21
69622;BME280;56841;55.964;37.674;2022-08-14T06:33:26;100032.47;;;25.04;58.00
69622;BME280;56841;55.964;37.674;2022-08-14T06:35:52;100031.84;;;25.19;56.02
69622;BME280;56841;55.964;37.674;2022-08-14T06:38:20;100024.69;;;25.30;55.37
69622;BME280;56841;55.964;37.674;2022-08-14T06:40:46;100024.44;;;25.37;54.85
69622;BME280;56841;55.964;37.674;2022-08-14T06:43:14;100021.97;;;25.30;54.60
69622;BME280;56841;55.964;37.674;2022-08-14T06:45:42;100027.16;;;25.37;54.17
69622;BME280;56841;55.964;37.674;2022-08-14T06:48:20;100029.19;;;25.51;53.98
69622;BME280;56841;55.964;37.674;2022-08-14T06:50:49;100028.69;;;25.55;53.48
69622;BME280;56841;55.964;37.674;2022-08-14T06:53:17;100027.69;;;25.66;52.59
69622;BME280;56841;55.964;37.674;2022-08-14T06:55:47;100031.41;;;25.82;52.84
69622;BME280;56841;55.964;37.674;2022-08-14T06:58:16;100023.81;;;25.84;51.03
69622;BME280;56841;55.964;37.674;2022-08-14T07:00:42;100025.19;;;25.86;50.67
69622;BME280;56841;55.964;37.674;2022-08-14T07:03:29;100029.50;;;25.82;51.11
69622;BME280;56841;55.964;37.674;2022-08-14T07:06:14;100020.91;;;25.90;50.24
69622;BME280;56841;55.964;37.674;2022-08-14T07:08:40;100015.97;;;25.82;49.99
69622;BME280;56841;55.964;37.674;2022-08-14T07:11:08;100024.94;;;25.88;50.24
69622;BME280;56841;55.964;37.674;2022-08-14T07:13:34;100021.97;;;25.89;50.24
69622;BME280;56841;55.964;37.674;2022-08-14T07:16:00;100020.97;;;25.95;49.14
69622;BME280;56841;55.964;37.674;2022-08-14T07:18:28;100023.72;;;26.06;49.10
69622;BME280;56841;55.964;37.674;2022-08-14T07:20:56;100014.03;;;26.15;49.48
69622;BME280;56841;55.964;37.674;2022-08-14T07:23:22;100018.34;;;26.11;48.19
69622;BME280;56841;55.964;37.674;2022-08-14T07:25:49;100013.75;;;26.11;48.67
69622;BME280;56841;55.964;37.674;2022-08-14T07:28:28;100016.50;;;26.16;48.97
69622;BME280;56841;55.964;37.674;2022-08-14T07:30:56;100014.66;;;26.27;48.49
69622;BME280;56841;55.964;37.674;2022-08-14T07:33:29;100016.63;;;26.37;47.25
69622;BME280;56841;55.964;37.674;2022-08-14T07:35:58;100014.16;;;26.35;46.99
69622;BME280;56841;55.964;37.674;2022-08-14T07:38:26;100011.44;;;26.35;46.01
69622;BME280;56841;55.964;37.674;2022-08-14T07:40:52;100010.44;;;26.46;46.00
69622;BME280;56841;55.964;37.674;2022-08-14T07:43:19;100007.25;;;26.55;46.69
69622;BME280;56841;55.964;37.674;2022-08-14T07:45:45;100009.72;;;26.61;47.14
69622;BME280;56841;55.964;37.674;2022-08-14T07:48:12;100011.09;;;26.64;46.30
69622;BME280;56841;55.964;37.674;2022-08-14T07:50:38;100000.81;;;26.66;45.71
69622;BME280;56841;55.964;37.674;2022-08-14T07:53:04;100005.44;;;26.70;46.27
69622;BME280;56841;55.964;37.674;2022-08-14T07:55:31;100008.19;;;26.81;45.74
69622;BME280;56841;55.964;37.674;2022-08-14T07:57:57;100003.63;;;26.97;45.67
69622;BME280;56841;55.964;37.674;2022-08-14T08:00:24;100006.34;;;26.91;45.22
69622;BME280;56841;55.964;37.674;2022-08-14T08:02:53;100000.38;;;27.00;45.93
69622;BME280;56841;55.964;37.674;2022-08-14T08:05:22;100006.91;;;26.99;45.49
69622;BME280;56841;55.964;37.674;2022-08-14T08:07:50;100006.88;;;26.93;45.62
69622;BME280;56841;55.964;37.674;2022-08-14T08:10:22;100005.78;;;26.84;45.58
69622;BME280;56841;55.964;37.674;2022-08-14T08:15:28;100014.78;;;27.05;45.22
69622;BME280;56841;55.964;37.674;2022-08-14T08:17:54;100012.88;;;27.11;45.25
69622;BME280;56841;55.964;37.674;2022-08-14T08:20:23;100018.59;;;27.14;44.97
69622;BME280;56841;55.964;37.674;2022-08-14T08:22:52;100006.16;;;27.19;45.38
69622;BME280;56841;55.964;37.674;2022-08-14T08:25:28;100004.00;;;27.26;44.00
69622;BME280;56841;55.964;37.674;2022-08-14T08:28:01;100006.47;;;27.37;44.52
69622;BME280;56841;55.964;37.674;2022-08-14T08:30:29;100003.78;;;27.53;44.12
69622;BME280;56841;55.964;37.674;2022-08-14T08:32:56;99999.44;;;27.67;43.34
69622;BME280;56841;55.964;37.674;2022-08-14T08:35:25;99992.38;;;27.71;43.54
69622;BME280;56841;55.964;37.674;2022-08-14T08:37:53;100003.81;;;27.83;43.15
69622;BME280;56841;55.964;37.674;2022-08-14T08:40:28;99997.81;;;28.07;43.60
69622;BME280;56841;55.964;37.674;2022-08-14T08:42:54;99999.13;;;28.20;42.20
69622;BME280;56841;55.964;37.674;2022-08-14T08:45:20;100000.75;;;28.41;41.13
69622;BME280;56841;55.964;37.674;2022-08-14T08:47:48;100000.72;;;28.46;41.86
69622;BME280;56841;55.964;37.674;2022-08-14T08:52:50;99997.38;;;28.65;41.52
69622;BME280;56841;55.964;37.674;2022-08-14T08:55:23;99991.94;;;28.70;41.05
69622;BME280;56841;55.964;37.674;2022-08-14T08:57:58;99997.59;;;28.78;40.67
69622;BME280;56841;55.964;37.674;2022-08-14T09:00:26;99994.63;;;28.75;41.63
69622;BME280;56841;55.964;37.674;2022-08-14T09:03:17;99995.63;;;28.94;40.38
69622;BME280;56841;55.964;37.674;2022-08-14T09:08:20;99982.28;;;28.98;39.60
69622;BME280;56841;55.964;37.674;2022-08-14T09:10:46;99982.59;;;28.91;39.99
69622;BME280;56841;55.964;37.674;2022-08-14T09:13:16;99983.41;;;28.92;40.09
69622;BME280;56841;55.964;37.674;2022-08-14T09:15:47;99979.22;;;28.60;41.06
69622;BME280;56841;55.964;37.674;2022-08-14T09:18:16;99974.28;;;28.72;40.91
69622;BME280;56841;55.964;37.674;2022-08-14T09:20:49;99976.25;;;28.62;40.54
69622;BME280;56841;55.964;37.674;2022-08-14T09:23:16;99974.91;;;28.49;40.38
69622;BME280;56841;55.964;37.674;2022-08-14T09:25:44;99975.72;;;28.44;40.64
69622;BME280;56841;55.964;37.674;2022-08-14T09:28:11;99982.00;;;28.34;41.72
69622;BME280;56841;55.964;37.674;2022-08-14T09:30:44;99974.19;;;28.18;42.22
69622;BME280;56841;55.964;37.674;2022-08-14T09:33:34;99975.50;;;28.20;41.58
69622;BME280;56841;55.964;37.674;2022-08-14T09:42:09;99968.44;;;28.29;41.45
69622;BME280;56841;55.964;37.674;2022-08-14T09:44:49;99967.13;;;28.06;41.60
69622;BME280;56841;55.964;37.674;2022-08-14T09:47:20;99971.75;;;28.06;41.64
69622;BME280;56841;55.964;37.674;2022-08-14T09:52:52;99966.06;;;28.07;41.76
69622;BME280;56841;55.964;37.674;2022-08-14T09:55:21;99970.66;;;28.12;41.05
69622;BME280;56841;55.964;37.674;2022-08-14T09:57:49;99967.38;;;28.15;41.31
69622;BME280;56841;55.964;37.674;2022-08-14T10:00:18;99969.00;;;28.16;41.59
69622;BME280;56841;55.964;37.674;2022-08-14T10:02:52;99970.06;;;28.20;41.71
69622;BME280;56841;55.964;37.674;2022-08-14T10:05:38;99970.38;;;28.19;41.29
69622;BME280;56841;55.964;37.674;2022-08-14T10:08:15;99964.13;;;28.13;41.16
69622;BME280;56841;55.964;37.674;2022-08-14T10:10:42;99968.44;;;28.34;40.80
69622;BME280;56841;55.964;37.674;2022-08-14T10:13:23;99966.25;;;28.42;41.04
69622;BME280;56841;55.964;37.674;2022-08-14T10:15:50;99969.53;;;28.39;41.50
69622;BME280;56841;55.964;37.674;2022-08-14T10:18:26;99966.22;;;28.52;41.91
69622;BME280;56841;55.964;37.674;2022-08-14T10:20:58;99970.84;;;28.46;41.29
69622;BME280;56841;55.964;37.674;2022-08-14T10:23:28;99971.91;;;28.50;41.42
69622;BME280;56841;55.964;37.674;2022-08-14T10:26:07;99976.25;;;28.62;41.43
69622;BME280;56841;55.964;37.674;2022-08-14T10:28:41;99973.72;;;28.70;41.04
69622;BME280;56841;55.964;37.674;2022-08-14T10:31:23;99974.44;;;28.91;41.07
69622;BME280;56841;55.964;37.674;2022-08-14T10:34:01;99968.09;;;29.11;40.75
69622;BME280;56841;55.964;37.674;2022-08-14T10:36:39;99967.41;;;29.29;39.57
69622;BME280;56841;55.964;37.674;2022-08-14T10:39:14;99965.94;;;29.47;39.23
69622;BME280;56841;55.964;37.674;2022-08-14T10:41:42;99969.16;;;29.55;38.73
69622;BME280;56841;55.964;37.674;2022-08-14T10:44:17;99974.84;;;29.58;38.63
69622;BME280;56841;55.964;37.674;2022-08-14T10:49:20;99967.41;;;29.98;38.01
69622;BME280;56841;55.964;37.674;2022-08-14T10:57:20;99962.03;;;29.93;37.58
69622;BME280;56841;55.964;37.674;2022-08-14T10:59:58;99960.00;;;30.04;37.58
69622;BME280;56841;55.964;37.674;2022-08-14T11:02:25;99958.13;;;29.75;37.52
69622;BME280;56841;55.964;37.674;2022-08-14T11:05:17;99961.91;;;29.74;37.49
69622;BME280;56841;55.964;37.674;2022-08-14T11:10:21;99957.91;;;29.66;37.71
69622;BME280;56841;55.964;37.674;2022-08-14T11:12:53;99960.06;;;29.69;38.21
69622;BME280;56841;55.964;37.674;2022-08-14T11:15:22;99957.03;;;29.71;37.55
69622;BME280;56841;55.964;37.674;2022-08-14T11:17:50;99962.03;;;29.93;37.02
69622;BME280;56841;55.964;37.674;2022-08-14T11:20:19;99959.84;;;29.95;37.40
69622;BME280;56841;55.964;37.674;2022-08-14T11:22:51;99947.25;;;29.99;37.46
69622;BME280;56841;55.964;37.674;2022-08-14T11:25:21;99945.09;;;29.72;38.48
69622;BME280;56841;55.964;37.674;2022-08-14T11:27:53;99950.91;;;29.55;39.08
69622;BME280;56841;55.964;37.674;2022-08-14T11:30:24;99948.84;;;29.42;38.88
69622;BME280;56841;55.964;37.674;2022-08-14T11:32:51;99947.81;;;29.33;38.96
69622;BME280;56841;55.964;37.674;2022-08-14T11:35:24;99943.16;;;29.38;39.46
69622;BME280;56841;55.964;37.674;2022-08-14T11:38:01;99944.66;;;29.55;38.97
69622;BME280;56841;55.964;37.674;2022-08-14T11:40:29;99944.94;;;29.53;38.60
69622;BME280;56841;55.964;37.674;2022-08-14T11:42:55;99942.97;;;29.64;38.74
69622;BME280;56841;55.964;37.674;2022-08-14T11:45:24;99942.19;;;29.58;37.90
69622;BME280;56841;55.964;37.674;2022-08-14T11:47:51;99950.59;;;29.91;37.47
69622;BME280;56841;55.964;37.674;2022-08-14T11:50:27;99934.63;;;30.08;37.79
69622;BME280;56841;55.964;37.674;2022-08-14T11:52:56;99935.81;;;30.02;37.45
69622;BME280;56841;55.964;37.674;2022-08-14T11:55:25;99930.50;;;29.87;37.56
69622;BME280;56841;55.964;37.674;2022-08-14T11:58:04;99934.25;;;29.91;38.27
69622;BME280;56841;55.964;37.674;2022-08-14T12:00:30;99933.41;;;29.95;37.34
69622;BME280;56841;55.964;37.674;2022-08-14T12:02:59;99928.81;;;29.91;36.83
69622;BME280;56841;55.964;37.674;2022-08-14T12:05:35;99923.66;;;30.18;36.37
69622;BME280;56841;55.964;37.674;2022-08-14T12:08:04;99924.25;;;30.39;36.48
69622;BME280;56841;55.964;37.674;2022-08-14T12:10:39;99919.06;;;30.38;35.93
69622;BME280;56841;55.964;37.674;2022-08-14T12:13:17;99924.09;;;30.68;35.23
69622;BME280;56841;55.964;37.674;2022-08-14T12:15:46;99916.66;;;31.50;33.93
69622;BME280;56841;55.964;37.674;2022-08-14T12:18:30;99918.53;;;32.37;33.03
69622;BME280;56841;55.964;37.674;2022-08-14T12:20:57;99914.88;;;32.69;32.83
69622;BME280;56841;55.964;37.674;2022-08-14T12:23:24;99910.69;;;32.22;32.81
69622;BME280;56841;55.964;37.674;2022-08-14T12:26:05;99906.78;;;31.68;33.78
69622;BME280;56841;55.964;37.674;2022-08-14T12:28:32;99909.81;;;31.66;34.51
69622;BME280;56841;55.964;37.674;2022-08-14T12:30:59;99909.38;;;31.59;34.50
69622;BME280;56841;55.964;37.674;2022-08-14T12:33:37;99904.38;;;31.33;34.27
69622;BME280;56841;55.964;37.674;2022-08-14T12:36:07;99904.34;;;31.66;34.40
69622;BME280;56841;55.964;37.674;2022-08-14T12:38:37;99899.59;;;31.72;34.77
69622;BME280;56841;55.964;37.674;2022-08-14T12:41:09;99900.16;;;31.55;35.49
69622;BME280;56841;55.964;37.674;2022-08-14T12:43:46;99901.69;;;31.47;35.86
69622;BME280;56841;55.964;37.674;2022-08-14T12:46:34;99900.03;;;32.34;34.59
69622;BME280;56841;55.964;37.674;2022-08-14T12:49:09;99910.16;;;33.42;32.77
69622;BME280;56841;55.964;37.674;2022-08-14T12:51:36;99906.47;;;34.01;31.22
69622;BME280;56841;55.964;37.674;2022-08-14T12:54:14;99915.69;;;34.13;30.96
69622;BME280;56841;55.964;37.674;2022-08-14T12:56:44;99911.44;;;33.99;31.15
69622;BME280;56841;55.964;37.674;2022-08-14T12:59:11;99907.88;;;33.98;31.20
69622;BME280;56841;55.964;37.674;2022-08-14T13:01:37;99907.56;;;34.00;31.48
69622;BME280;56841;55.964;37.674;2022-08-14T13:04:09;99899.22;;;34.05;31.76
69622;BME280;56841;55.964;37.674;2022-08-14T13:06:39;99898.31;;;33.78;31.45
69622;BME280;56841;55.964;37.674;2022-08-14T13:09:07;99904.78;;;33.51;32.08
69622;BME280;56841;55.964;37.674;2022-08-14T13:11:41;99899.66;;;33.58;32.33
69622;BME280;56841;55.964;37.674;2022-08-14T13:14:15;99896.28;;;33.92;30.82
69622;BME280;56841;55.964;37.674;2022-08-14T13:16:42;99893.53;;;33.92;31.31
69622;BME280;56841;55.964;37.674;2022-08-14T13:19:13;99889.38;;;34.70;29.75
69622;BME280;56841;55.964;37.674;2022-08-14T13:21:46;99896.25;;;35.45;28.46
69622;BME280;56841;55.964;37.674;2022-08-14T13:24:14;99892.06;;;35.56;28.13